Time,TemperatureF,DewpointF,PressureIn,WindDirection,WindDirectionDegrees,WindSpeedMPH,WindSpeedGustMPH,Humidity,HourlyPrecipIn,Conditions,Clouds,dailyrainin,SoftwareType,DateUTC
2013-06-14 00:01:00,51.6,50.5,29.68,NNE,28,0.0,0.0,96,0.07,-RA,,0.00,WeatherDisplay:10.37,2013-06-14 04:01:00,
2013-06-14 00:06:00,51.5,50.7,29.68,SSE,157,0.1,1.2,97,0.06,RA,,0.01,WeatherDisplay:10.37,2013-06-14 04:06:00,
2013-06-14 00:11:00,51.6,50.8,29.68,ESE,118,0.0,0.0,97,0.07,RA,,0.01,WeatherDisplay:10.37,2013-06-14 04:11:00,
2013-06-14 00:16:00,51.6,50.8,29.67,ESE,118,0.1,1.2,97,0.08,RA,,0.02,WeatherDisplay:10.37,2013-06-14 04:16:00,
2013-06-14 00:21:00,51.6,50.8,29.67,ESE,121,0.3,3.5,97,0.07,RA,,0.02,WeatherDisplay:10.37,2013-06-14 04:21:00,
2013-06-14 00:26:00,51.6,50.8,29.67,NE,46,0.8,2.3,97,0.07,RA,,0.03,WeatherDisplay:10.37,2013-06-14 04:26:00,
2013-06-14 00:31:00,51.6,50.8,29.67,ESE,111,1.0,3.5,97,0.07,RA,,0.03,WeatherDisplay:10.37,2013-06-14 04:31:00,
2013-06-14 00:36:00,51.7,50.9,29.67,SSE,154,1.7,3.5,97,0.06,OVC,,0.03,WeatherDisplay:10.37,2013-06-14 04:36:00,
2013-06-14 00:41:00,51.8,51.0,29.67,SSE,149,0.4,2.3,97,0.06,RA,,0.04,WeatherDisplay:10.37,2013-06-14 04:41:00,
2013-06-14 00:46:00,51.8,51.0,29.67,SE,139,0.0,0.0,97,0.07,RA,,0.05,WeatherDisplay:10.37,2013-06-14 04:46:00,
2013-06-14 00:51:00,51.8,51.0,29.67,NE,50,0.6,2.3,97,0.06,RA,,0.05,WeatherDisplay:10.37,2013-06-14 04:51:00,
2013-06-14 00:56:00,52.0,51.2,29.67,ESE,106,0.3,1.2,97,0.06,RA,,0.06,WeatherDisplay:10.37,2013-06-14 04:56:00,
2013-06-14 01:01:00,52.1,51.3,29.67,ESE,105,0.2,1.2,97,0.07,RA,,0.07,WeatherDisplay:10.37,2013-06-14 05:01:00,
2013-06-14 01:06:00,52.2,51.4,29.67,NNW,339,1.4,3.5,97,0.07,RA,,0.07,WeatherDisplay:10.37,2013-06-14 05:06:00,
2013-06-14 01:11:00,52.4,51.6,29.67,ENE,71,0.0,0.0,97,0.07,RA,,0.08,WeatherDisplay:10.37,2013-06-14 05:11:00,
2013-06-14 01:16:00,52.6,51.8,29.67,NW,315,0.5,2.3,97,0.07,-RA,,0.09,WeatherDisplay:10.37,2013-06-14 05:16:00,
2013-06-14 01:21:00,52.6,51.8,29.67,North,355,0.6,2.3,97,0.07,-RA,,0.09,WeatherDisplay:10.37,2013-06-14 05:21:00,
2013-06-14 01:26:00,52.5,51.7,29.67,ENE,59,0.8,3.5,97,0.07,-RA,,0.10,WeatherDisplay:10.37,2013-06-14 05:26:00,
2013-06-14 01:31:00,52.5,51.7,29.67,East,86,0.2,2.3,97,0.07,RA,,0.10,WeatherDisplay:10.37,2013-06-14 05:31:00,
2013-06-14 01:36:00,52.5,51.7,29.66,ENE,58,0.2,1.2,97,0.08,RA,,0.11,WeatherDisplay:10.37,2013-06-14 05:36:00,
2013-06-14 01:41:00,52.5,51.7,29.66,East,84,0.0,0.0,97,0.07,RA,,0.11,WeatherDisplay:10.37,2013-06-14 05:41:00,
2013-06-14 01:46:00,52.5,51.7,29.66,East,82,0.0,1.2,97,0.07,RA,,0.12,WeatherDisplay:10.37,2013-06-14 05:46:00,
2013-06-14 01:51:00,52.5,51.7,29.66,WNW,287,0.9,2.3,97,0.08,RA,,0.13,WeatherDisplay:10.37,2013-06-14 05:51:00,
2013-06-14 01:56:00,52.5,51.7,29.66,East,97,0.8,2.0,97,0.07,RA,,0.13,WeatherDisplay:10.37,2013-06-14 05:56:00,
2013-06-14 02:01:00,52.4,51.6,29.66,ENE,76,0.4,2.3,97,0.07,RA,,0.14,WeatherDisplay:10.37,2013-06-14 06:01:00,
2013-06-14 02:06:00,52.4,51.6,29.66,ENE,65,1.1,2.3,97,0.08,RA,,0.15,WeatherDisplay:10.37,2013-06-14 06:06:00,
2013-06-14 02:11:00,52.4,51.6,29.66,ENE,65,0.5,3.5,97,0.08,RA,,0.16,WeatherDisplay:10.37,2013-06-14 06:11:00,
2013-06-14 02:16:00,52.4,51.6,29.66,SE,125,0.4,2.3,97,0.07,RA,,0.17,WeatherDisplay:10.37,2013-06-14 06:16:00,
2013-06-14 02:21:00,52.4,51.6,29.65,ENE,58,1.0,3.5,97,0.08,RA,,0.17,WeatherDisplay:10.37,2013-06-14 06:21:00,
2013-06-14 02:26:00,52.4,51.6,29.65,East,94,0.5,3.5,97,0.08,RA,,0.18,WeatherDisplay:10.37,2013-06-14 06:26:00,
2013-06-14 02:31:00,52.3,51.5,29.65,SE,130,0.0,0.0,97,0.09,RA,,0.19,WeatherDisplay:10.37,2013-06-14 06:31:00,
2013-06-14 02:36:00,52.4,51.6,29.65,SE,126,0.7,2.3,97,0.09,RA,,0.20,WeatherDisplay:10.37,2013-06-14 06:36:00,
2013-06-14 02:41:00,52.3,51.5,29.65,NNE,17,0.0,1.2,97,0.10,RA,,0.21,WeatherDisplay:10.37,2013-06-14 06:41:00,
2013-06-14 02:46:00,52.2,51.4,29.65,SSE,153,0.8,2.0,97,0.09,RA,,0.21,WeatherDisplay:10.37,2013-06-14 06:46:00,
2013-06-14 02:51:00,52.1,51.3,29.66,ENE,67,0.0,1.2,97,0.08,OVC,,0.21,WeatherDisplay:10.37,2013-06-14 06:51:00,
2013-06-14 02:56:00,52.1,51.3,29.65,SW,215,0.3,1.2,97,0.09,RA,,0.22,WeatherDisplay:10.37,2013-06-14 06:56:00,
2013-06-14 03:01:00,52.1,51.3,29.65,SE,133,0.0,0.0,97,0.08,RA,,0.22,WeatherDisplay:10.37,2013-06-14 07:01:00,
2013-06-14 03:06:00,52.0,51.2,29.65,SSE,159,0.0,0.0,97,0.08,RA,,0.23,WeatherDisplay:10.37,2013-06-14 07:06:00,
2013-06-14 03:11:00,52.1,51.3,29.65,SE,140,0.1,1.2,97,0.07,RA,,0.23,WeatherDisplay:10.37,2013-06-14 07:11:00,
2013-06-14 03:16:00,52.1,51.3,29.66,SE,140,0.3,1.2,97,0.07,OVC,,0.23,WeatherDisplay:10.37,2013-06-14 07:16:00,
2013-06-14 03:21:00,52.1,51.3,29.66,SE,141,0.1,1.2,97,0.07,RA,,0.24,WeatherDisplay:10.37,2013-06-14 07:21:00,
2013-06-14 03:26:00,52.1,51.3,29.66,SSE,157,0.0,0.0,97,0.06,RA,,0.24,WeatherDisplay:10.37,2013-06-14 07:26:00,
2013-06-14 03:31:00,52.1,51.3,29.66,SSE,157,0.0,0.0,97,0.06,RA,,0.25,WeatherDisplay:10.37,2013-06-14 07:31:00,
2013-06-14 03:36:00,52.1,51.3,29.66,SSE,157,0.0,0.0,97,0.05,RA,,0.25,WeatherDisplay:10.37,2013-06-14 07:36:00,
2013-06-14 03:41:00,52.2,51.7,29.67,SSE,157,0.0,0.0,98,0.04,OVC,,0.25,WeatherDisplay:10.37,2013-06-14 07:41:00,
2013-06-14 03:46:00,52.3,51.8,29.67,SSE,157,0.0,0.0,98,0.05,RA,,0.26,WeatherDisplay:10.37,2013-06-14 07:46:00,
2013-06-14 03:51:00,52.3,51.5,29.66,SSE,157,0.0,0.0,97,0.05,RA,,0.26,WeatherDisplay:10.37,2013-06-14 07:51:00,
2013-06-14 03:56:00,52.3,51.5,29.66,SSE,157,0.0,0.0,97,0.05,RA,,0.27,WeatherDisplay:10.37,2013-06-14 07:56:00,
2013-06-14 04:01:00,52.3,51.8,29.66,SSE,157,0.0,0.0,98,0.05,RA,,0.27,WeatherDisplay:10.37,2013-06-14 08:01:00,
2013-06-14 04:06:00,52.3,51.8,29.66,SSE,157,0.0,0.0,98,0.05,RA,,0.28,WeatherDisplay:10.37,2013-06-14 08:06:00,
2013-06-14 04:11:00,52.4,51.9,29.66,SSE,157,0.0,0.0,98,0.06,RA,,0.29,WeatherDisplay:10.37,2013-06-14 08:11:00,
2013-06-14 04:16:00,52.4,51.9,29.66,SE,144,0.0,0.0,98,0.07,-RA,,0.30,WeatherDisplay:10.37,2013-06-14 08:16:00,
2013-06-14 04:21:00,52.5,52.0,29.66,SE,141,0.0,0.0,98,0.07,-RA,,0.31,WeatherDisplay:10.37,2013-06-14 08:21:00,
2013-06-14 04:26:00,52.6,52.1,29.66,SE,141,0.3,0.0,98,0.08,-RA,,0.32,WeatherDisplay:10.37,2013-06-14 08:26:00,
2013-06-14 04:31:00,52.6,52.1,29.66,SE,130,0.3,1.2,98,0.08,-RA,,0.33,WeatherDisplay:10.37,2013-06-14 08:31:00,
2013-06-14 04:36:00,52.6,52.1,29.66,SE,130,0.0,0.0,98,0.09,-RA,,0.34,WeatherDisplay:10.37,2013-06-14 08:36:00,
2013-06-14 04:41:00,52.6,51.8,29.67,SE,130,0.1,1.2,97,0.10,-RA,,0.35,WeatherDisplay:10.37,2013-06-14 08:41:00,
2013-06-14 04:46:00,52.7,52.2,29.67,SE,125,1.0,3.5,98,0.10,-RA,,0.36,WeatherDisplay:10.37,2013-06-14 08:46:00,
2013-06-14 04:51:00,52.7,52.2,29.67,SE,134,0.1,1.2,98,0.11,-RA,,0.37,WeatherDisplay:10.37,2013-06-14 08:51:00,
2013-06-14 04:56:00,52.8,52.3,29.67,SE,129,0.0,0.0,98,0.10,-RA,,0.37,WeatherDisplay:10.37,2013-06-14 08:56:00,
2013-06-14 05:01:00,52.8,52.3,29.67,SSE,147,0.0,0.0,98,0.11,-RA,,0.39,WeatherDisplay:10.37,2013-06-14 09:01:00,
2013-06-14 05:06:00,52.9,52.4,29.67,SE,128,0.0,1.2,98,0.11,-RA,,0.39,WeatherDisplay:10.37,2013-06-14 09:06:00,
2013-06-14 05:11:00,53.0,52.5,29.67,ESE,117,0.0,0.0,98,0.11,-RA,,0.40,WeatherDisplay:10.37,2013-06-14 09:11:00,
2013-06-14 05:16:00,53.1,52.6,29.67,SSE,148,0.5,2.3,98,0.11,RA,,0.41,WeatherDisplay:10.37,2013-06-14 09:16:00,
2013-06-14 05:21:00,53.1,52.6,29.67,South,173,0.0,1.2,98,0.10,RA,,0.41,WeatherDisplay:10.37,2013-06-14 09:21:00,
2013-06-14 05:26:00,53.1,52.6,29.67,South,173,0.0,0.0,98,0.10,RA,,0.43,WeatherDisplay:10.37,2013-06-14 09:26:00,
2013-06-14 05:31:00,53.2,52.7,29.67,South,170,0.4,2.3,98,0.11,RA,,0.44,WeatherDisplay:10.37,2013-06-14 09:31:00,
2013-06-14 05:36:00,53.1,52.6,29.67,SSE,163,0.0,0.0,98,0.11,RA,,0.45,WeatherDisplay:10.37,2013-06-14 09:36:00,
2013-06-14 05:41:00,53.1,52.6,29.68,SE,145,0.0,1.2,98,0.11,RA,,0.46,WeatherDisplay:10.37,2013-06-14 09:41:00,
2013-06-14 05:46:00,53.1,52.6,29.68,SE,141,0.2,1.2,98,0.10,RA,,0.46,WeatherDisplay:10.37,2013-06-14 09:46:00,
2013-06-14 05:51:00,53.0,52.5,29.68,SE,127,0.0,0.0,98,0.10,RA,,0.47,WeatherDisplay:10.37,2013-06-14 09:51:00,
2013-06-14 05:56:00,53.0,52.5,29.68,ESE,109,0.4,1.2,98,0.11,RA,,0.48,WeatherDisplay:10.37,2013-06-14 09:56:00,
2013-06-14 06:01:00,53.0,52.5,29.68,East,94,0.1,1.2,98,0.11,RA,,0.49,WeatherDisplay:10.37,2013-06-14 10:01:00,
2013-06-14 06:06:00,52.9,52.4,29.68,East,100,0.0,1.2,98,0.11,RA,,0.50,WeatherDisplay:10.37,2013-06-14 10:06:00,
2013-06-14 06:11:00,52.9,52.4,29.69,East,100,0.0,0.0,98,0.11,RA,,0.51,WeatherDisplay:10.37,2013-06-14 10:11:00,
2013-06-14 06:16:00,52.9,52.4,29.69,ENE,60,0.0,2.3,98,0.10,-RA,,0.51,WeatherDisplay:10.37,2013-06-14 10:16:00,
2013-06-14 06:21:00,52.8,52.3,29.69,ESE,103,1.3,3.0,98,0.11,-RA,,0.52,WeatherDisplay:10.37,2013-06-14 10:21:00,
2013-06-14 06:26:00,52.8,52.0,29.69,ESE,102,0.0,0.0,97,0.11,-RA,,0.53,WeatherDisplay:10.37,2013-06-14 10:26:00,
2013-06-14 06:31:00,52.7,51.9,29.69,ESE,103,0.0,0.0,97,0.09,RA,,0.53,WeatherDisplay:10.37,2013-06-14 10:31:00,
2013-06-14 06:36:00,52.7,51.9,29.69,ESE,121,0.0,0.0,97,0.09,RA,,0.54,WeatherDisplay:10.37,2013-06-14 10:36:00,
2013-06-14 06:41:00,52.7,52.2,29.69,SW,223,0.0,1.2,98,0.09,RA,,0.55,WeatherDisplay:10.37,2013-06-14 10:41:00,
2013-06-14 06:46:00,52.7,52.2,29.70,SSE,148,0.5,3.5,98,0.09,-RA,,0.55,WeatherDisplay:10.37,2013-06-14 10:46:00,
2013-06-14 06:51:00,52.6,51.8,29.70,West,277,0.5,2.3,97,0.10,-RA,,0.57,WeatherDisplay:10.37,2013-06-14 10:51:00,
2013-06-14 06:56:00,52.6,52.1,29.70,ENE,57,0.0,0.0,98,0.09,-RA,,0.57,WeatherDisplay:10.37,2013-06-14 10:56:00,
2013-06-14 07:01:00,52.7,52.2,29.70,ENE,59,0.0,0.0,98,0.09,-RA,,0.59,WeatherDisplay:10.37,2013-06-14 11:01:00,
2013-06-14 07:06:00,52.7,52.2,29.71,East,93,0.0,0.0,98,0.09,-RA,,0.59,WeatherDisplay:10.37,2013-06-14 11:06:00,
2013-06-14 07:11:00,52.7,52.2,29.71,ENE,77,0.0,1.2,98,0.09,-RA,,0.60,WeatherDisplay:10.37,2013-06-14 11:11:00,
2013-06-14 07:16:00,52.7,52.2,29.71,ENE,77,0.0,0.0,98,0.10,RA,,0.61,WeatherDisplay:10.37,2013-06-14 11:16:00,
2013-06-14 07:21:00,52.7,52.2,29.71,ENE,77,0.0,0.0,98,0.10,RA,,0.62,WeatherDisplay:10.37,2013-06-14 11:21:00,
2013-06-14 07:26:00,52.8,52.3,29.71,East,88,0.0,0.0,98,0.09,RA,,0.62,WeatherDisplay:10.37,2013-06-14 11:26:00,
2013-06-14 07:31:00,52.8,52.3,29.71,East,88,0.1,1.2,98,0.10,RA,,0.63,WeatherDisplay:10.37,2013-06-14 11:31:00,
2013-06-14 07:36:00,52.8,52.3,29.72,East,88,0.0,0.0,98,0.09,RA,,0.63,WeatherDisplay:10.37,2013-06-14 11:36:00,
2013-06-14 07:41:00,52.8,52.3,29.71,East,88,0.0,0.0,98,0.09,RA,,0.64,WeatherDisplay:10.37,2013-06-14 11:41:00,
2013-06-14 07:46:00,52.8,52.3,29.72,East,88,0.1,1.2,98,0.10,RA,,0.65,WeatherDisplay:10.37,2013-06-14 11:46:00,
2013-06-14 07:51:00,52.7,51.9,29.71,SE,131,0.9,3.5,97,0.08,RA,,0.65,WeatherDisplay:10.37,2013-06-14 11:51:00,
2013-06-14 07:56:00,52.7,52.2,29.71,SE,144,0.0,1.2,98,0.08,OVC,,0.65,WeatherDisplay:10.37,2013-06-14 11:56:00,
2013-06-14 08:01:00,52.6,51.8,29.72,East,100,0.1,2.3,97,0.08,RA,,0.66,WeatherDisplay:10.37,2013-06-14 12:01:00,
2013-06-14 08:06:00,52.5,51.7,29.72,ESE,105,0.1,0.0,97,0.07,RA,,0.66,WeatherDisplay:10.37,2013-06-14 12:06:00,
2013-06-14 08:11:00,52.5,51.7,29.72,NNW,341,0.0,0.0,97,0.06,OVC,,0.66,WeatherDisplay:10.37,2013-06-14 12:11:00,
2013-06-14 08:16:00,52.6,52.1,29.72,SE,124,0.1,1.0,98,0.05,OVC,,0.66,WeatherDisplay:10.37,2013-06-14 12:16:00,
2013-06-14 08:21:00,52.6,52.1,29.72,ESE,115,1.1,3.5,98,0.04,OVC,,0.66,WeatherDisplay:10.37,2013-06-14 12:21:00,
2013-06-14 08:26:00,52.5,52.0,29.72,ESE,115,0.0,0.0,98,0.04,OVC,,0.66,WeatherDisplay:10.37,2013-06-14 12:26:00,
2013-06-14 08:31:00,52.5,51.7,29.71,NNE,25,0.0,1.2,97,0.03,OVC,,0.66,WeatherDisplay:10.37,2013-06-14 12:31:00,
2013-06-14 08:36:00,52.6,52.1,29.71,SE,139,0.0,0.0,98,0.04,RA,,0.67,WeatherDisplay:10.37,2013-06-14 12:36:00,
2013-06-14 08:41:00,52.6,52.1,29.71,ESE,115,0.3,1.2,98,0.03,RA,,0.67,WeatherDisplay:10.37,2013-06-14 12:41:00,
2013-06-14 08:46:00,52.7,52.2,29.72,ESE,113,0.0,0.0,98,0.02,OVC,,0.67,WeatherDisplay:10.37,2013-06-14 12:46:00,
2013-06-14 08:51:00,52.8,52.3,29.72,SSE,163,0.8,3.5,98,0.02,OVC,,0.67,WeatherDisplay:10.37,2013-06-14 12:51:00,
2013-06-14 08:56:00,52.8,52.3,29.72,SSE,163,0.0,0.0,98,0.02,OVC,,0.67,WeatherDisplay:10.37,2013-06-14 12:56:00,
2013-06-14 09:01:00,53.0,52.5,29.72,SSE,163,0.0,0.0,98,0.01,-RA,,0.67,WeatherDisplay:10.37,2013-06-14 13:01:00,
2013-06-14 09:06:00,53.1,52.6,29.73,SSE,163,0.0,0.0,98,0.01,-RA,,0.67,WeatherDisplay:10.37,2013-06-14 13:06:00,
2013-06-14 09:11:00,53.2,52.7,29.72,SE,146,0.0,1.2,98,0.01,-RA,,0.67,WeatherDisplay:10.37,2013-06-14 13:11:00,
2013-06-14 09:16:00,53.3,52.8,29.72,SE,132,0.0,1.2,98,0.01,-RA,,0.67,WeatherDisplay:10.37,2013-06-14 13:16:00,
2013-06-14 09:21:00,53.5,52.9,29.72,ESE,115,0.7,2.3,98,0.01,-RA,,0.67,WeatherDisplay:10.37,2013-06-14 13:21:00,
2013-06-14 09:26:00,53.3,52.8,29.72,SE,131,0.0,1.2,98,0.01,-RA,,0.67,WeatherDisplay:10.37,2013-06-14 13:26:00,
2013-06-14 09:31:00,53.4,52.8,29.72,ENE,62,0.0,1.2,98,0.01,-RA,,0.67,WeatherDisplay:10.37,2013-06-14 13:31:00,
2013-06-14 09:36:00,53.6,53.0,29.72,ENE,62,0.0,0.0,98,0.00,-RA,,0.67,WeatherDisplay:10.37,2013-06-14 13:36:00,
2013-06-14 09:41:00,53.7,53.1,29.72,East,91,0.3,1.2,98,0.00,-RA,,0.67,WeatherDisplay:10.37,2013-06-14 13:41:00,
2013-06-14 09:46:00,53.8,53.2,29.72,NW,320,0.7,3.5,98,0.00,-RA,,0.67,WeatherDisplay:10.37,2013-06-14 13:46:00,
2013-06-14 09:51:00,54.1,53.5,29.72,NW,320,0.0,0.0,98,0.00,-RA,,0.67,WeatherDisplay:10.37,2013-06-14 13:51:00,
2013-06-14 09:56:00,54.1,53.3,29.71,SE,128,1.0,5.0,97,0.00,-RA,,0.67,WeatherDisplay:10.37,2013-06-14 13:56:00,
2013-06-14 10:01:00,54.2,53.4,29.72,North,360,0.5,1.2,97,0.00,SCT,,0.67,WeatherDisplay:10.37,2013-06-14 14:01:00,
2013-06-14 10:06:00,54.4,53.6,29.72,North,360,0.1,1.2,97,0.00,SCT,,0.67,WeatherDisplay:10.37,2013-06-14 14:06:00,
2013-06-14 10:11:00,54.7,53.9,29.71,East,100,0.0,1.2,97,0.00,SCT,,0.67,WeatherDisplay:10.37,2013-06-14 14:11:00,
2013-06-14 10:16:00,55.0,53.9,29.71,NNE,22,0.3,1.2,96,0.00,SCT,,0.67,WeatherDisplay:10.37,2013-06-14 14:16:00,
2013-06-14 10:21:00,55.3,54.2,29.71,NNW,331,0.4,3.5,96,0.00,SCT,,0.67,WeatherDisplay:10.37,2013-06-14 14:21:00,
2013-06-14 10:26:00,55.6,54.2,29.72,NNW,341,0.3,2.3,95,0.00,RA,,0.67,WeatherDisplay:10.37,2013-06-14 14:26:00,
2013-06-14 10:31:00,55.8,54.4,29.72,NNW,336,0.7,1.2,95,0.00,RA,,0.67,WeatherDisplay:10.37,2013-06-14 14:31:00,
2013-06-14 10:36:00,56.3,54.9,29.72,NNW,337,0.0,1.2,95,0.00,SCT,,0.67,WeatherDisplay:10.37,2013-06-14 14:36:00,
2013-06-14 10:41:00,56.8,54.8,29.72,WNW,300,1.3,3.5,93,0.00,SCT,,0.67,WeatherDisplay:10.37,2013-06-14 14:41:00,
2013-06-14 10:46:00,56.9,54.0,29.72,NW,326,0.2,3.5,90,0.00,SCT,,0.67,WeatherDisplay:10.37,2013-06-14 14:46:00,
2013-06-14 10:51:00,57.3,54.7,29.72,SE,131,0.6,3.5,91,0.00,SCT,,0.67,WeatherDisplay:10.37,2013-06-14 14:51:00,
2013-06-14 10:56:00,57.8,55.2,29.72,South,169,0.2,1.2,91,0.00,SCT,,0.67,WeatherDisplay:10.37,2013-06-14 14:56:00,
2013-06-14 11:01:00,58.3,55.7,29.72,South,169,0.1,1.0,91,0.00,BKN,,0.67,WeatherDisplay:10.37,2013-06-14 15:01:00,
2013-06-14 11:06:00,58.8,55.3,29.72,South,181,1.2,2.3,88,0.00,BKN,,0.67,WeatherDisplay:10.37,2013-06-14 15:06:00,
2013-06-14 11:11:00,59.2,56.6,29.73,South,188,0.0,0.0,91,0.00,BKN,,0.67,WeatherDisplay:10.37,2013-06-14 15:11:00,
2013-06-14 11:16:00,58.9,54.1,29.72,NW,312,0.1,2.3,84,0.00,BKN,,0.67,WeatherDisplay:10.37,2013-06-14 15:16:00,
2013-06-14 11:21:00,59.1,55.5,29.73,West,274,1.3,3.5,88,0.00,BKN,,0.67,WeatherDisplay:10.37,2013-06-14 15:21:00,
2013-06-14 11:26:00,59.4,54.6,29.73,ESE,115,0.9,2.3,84,0.00,BKN,,0.67,WeatherDisplay:10.37,2013-06-14 15:26:00,
2013-06-14 11:31:00,59.8,54.3,29.73,ESE,107,1.0,3.5,82,0.00,BKN,,0.67,WeatherDisplay:10.37,2013-06-14 15:31:00,
2013-06-14 11:36:00,60.3,55.8,29.74,ESE,106,0.5,1.2,85,0.00,BKN,,0.67,WeatherDisplay:10.37,2013-06-14 15:36:00,
2013-06-14 11:41:00,60.5,54.3,29.73,ESE,115,1.8,3.5,80,0.00,BKN,,0.67,WeatherDisplay:10.37,2013-06-14 15:41:00,
2013-06-14 11:46:00,60.8,53.2,29.74,WSW,251,0.8,3.5,76,0.00,BKN,,0.67,WeatherDisplay:10.37,2013-06-14 15:46:00,
2013-06-14 11:51:00,60.8,53.2,29.73,NE,38,1.4,3.5,76,0.00,BKN,,0.67,WeatherDisplay:10.37,2013-06-14 15:51:00,
2013-06-14 11:56:00,61.0,53.4,29.74,WNW,283,3.6,6.0,76,0.00,BKN,,0.67,WeatherDisplay:10.37,2013-06-14 15:56:00,
2013-06-14 12:01:00,61.1,54.2,29.74,NE,42,0.6,2.3,78,0.00,BKN,,0.67,WeatherDisplay:10.37,2013-06-14 16:01:00,
2013-06-14 12:06:00,61.8,55.2,29.73,NW,315,0.9,2.3,79,0.00,BKN,,0.67,WeatherDisplay:10.37,2013-06-14 16:06:00,
2013-06-14 12:11:00,62.3,53.9,29.73,NW,325,2.5,3.5,74,0.00,BKN,,0.67,WeatherDisplay:10.37,2013-06-14 16:11:00,
2013-06-14 12:16:00,62.2,54.2,29.73,NNW,329,0.3,3.5,75,0.00,BKN,,0.67,WeatherDisplay:10.37,2013-06-14 16:16:00,
2013-06-14 12:21:00,62.3,54.3,29.73,NE,51,0.2,1.2,75,0.00,BKN,,0.67,WeatherDisplay:10.37,2013-06-14 16:21:00,
2013-06-14 12:26:00,62.7,55.4,29.73,West,263,1.2,2.0,77,0.00,BKN,,0.67,WeatherDisplay:10.37,2013-06-14 16:26:00,
2013-06-14 12:31:00,63.0,55.3,29.73,WNW,292,2.0,3.5,76,0.00,BKN,,0.67,WeatherDisplay:10.37,2013-06-14 16:31:00,
2013-06-14 12:36:00,63.0,55.7,29.74,NNE,19,0.8,2.3,77,0.00,BKN,,0.67,WeatherDisplay:10.37,2013-06-14 16:36:00,
2013-06-14 12:41:00,62.9,55.2,29.74,NW,312,0.5,2.3,76,0.00,BKN,,0.67,WeatherDisplay:10.37,2013-06-14 16:41:00,
2013-06-14 12:46:00,63.0,55.3,29.73,WSW,242,0.1,2.3,76,0.00,BKN,,0.67,WeatherDisplay:10.37,2013-06-14 16:46:00,
2013-06-14 12:51:00,63.3,56.3,29.73,West,262,0.9,1.2,78,0.00,BKN,,0.67,WeatherDisplay:10.37,2013-06-14 16:51:00,
2013-06-14 12:56:00,63.4,54.6,29.73,South,187,0.1,2.3,73,0.00,BKN,,0.67,WeatherDisplay:10.37,2013-06-14 16:56:00,
2013-06-14 13:01:00,63.6,55.2,29.73,NW,322,0.3,1.0,74,0.00,BKN,,0.67,WeatherDisplay:10.37,2013-06-14 17:01:00,
2013-06-14 13:06:00,63.9,56.2,29.73,NW,319,0.1,1.2,76,0.00,BKN,,0.67,WeatherDisplay:10.37,2013-06-14 17:06:00,
2013-06-14 13:11:00,64.1,53.7,29.73,WSW,255,1.3,2.3,69,0.00,BKN,,0.67,WeatherDisplay:10.37,2013-06-14 17:11:00,
2013-06-14 13:16:00,64.2,54.2,29.73,NNW,327,0.9,2.3,70,0.00,BKN,,0.67,WeatherDisplay:10.37,2013-06-14 17:16:00,
2013-06-14 13:21:00,64.7,55.5,29.73,NW,321,0.8,2.3,72,0.00,BKN,,0.67,WeatherDisplay:10.37,2013-06-14 17:21:00,
2013-06-14 13:26:00,65.2,55.2,29.72,North,5,1.9,3.5,70,0.00,BKN,,0.67,WeatherDisplay:10.37,2013-06-14 17:26:00,
2013-06-14 13:31:00,65.5,57.0,29.72,SW,221,0.4,2.3,74,0.00,BKN,,0.67,WeatherDisplay:10.37,2013-06-14 17:31:00,
2013-06-14 13:36:00,65.7,55.6,29.73,NNE,13,1.4,3.5,70,0.00,BKN,,0.67,WeatherDisplay:10.37,2013-06-14 17:36:00,
2013-06-14 13:41:00,65.4,53.7,29.72,SW,234,4.3,8.1,66,0.00,BKN,,0.67,WeatherDisplay:10.37,2013-06-14 17:41:00,
2013-06-14 13:46:00,65.4,54.2,29.72,NNW,327,0.4,1.2,67,0.00,BKN,,0.67,WeatherDisplay:10.37,2013-06-14 17:46:00,
2013-06-14 13:51:00,65.7,54.4,29.72,NNW,333,2.3,3.5,67,0.00,BKN,,0.67,WeatherDisplay:10.37,2013-06-14 17:51:00,
2013-06-14 13:56:00,66.3,56.6,29.73,WSW,242,1.5,5.0,71,0.00,BKN,,0.67,WeatherDisplay:10.37,2013-06-14 17:56:00,
2013-06-14 14:01:00,66.5,56.0,29.73,North,11,1.3,3.5,69,0.00,SCT,,0.67,WeatherDisplay:10.37,2013-06-14 18:01:00,
2013-06-14 14:06:00,66.6,56.9,29.73,WSW,257,0.7,1.2,71,0.00,SCT,,0.67,WeatherDisplay:10.37,2013-06-14 18:06:00,
2013-06-14 14:11:00,66.5,56.4,29.72,SW,236,3.4,6.9,70,0.00,SCT,,0.67,WeatherDisplay:10.37,2013-06-14 18:11:00,
2013-06-14 14:16:00,66.9,56.4,29.72,West,275,3.6,5.8,69,0.00,SCT,,0.67,WeatherDisplay:10.37,2013-06-14 18:16:00,
2013-06-14 14:21:00,67.3,56.0,29.72,ENE,78,1.2,3.5,67,0.00,SCT,,0.67,WeatherDisplay:10.37,2013-06-14 18:21:00,
2013-06-14 14:26:00,67.8,56.0,29.72,ENE,70,1.3,3.5,66,0.00,SCT,,0.67,WeatherDisplay:10.37,2013-06-14 18:26:00,
2013-06-14 14:31:00,68.0,56.2,29.72,ENE,73,0.9,2.3,66,0.00,SCT,,0.67,WeatherDisplay:10.37,2013-06-14 18:31:00,
2013-06-14 14:36:00,68.4,57.0,29.71,NE,44,1.8,2.3,67,0.00,SCT,,0.67,WeatherDisplay:10.37,2013-06-14 18:36:00,
2013-06-14 14:41:00,69.1,58.1,29.71,NW,304,0.9,3.5,68,0.00,SCT,,0.67,WeatherDisplay:10.37,2013-06-14 18:41:00,
2013-06-14 14:46:00,69.0,55.4,29.71,NNW,328,1.8,5.8,62,0.00,SCT,,0.67,WeatherDisplay:10.37,2013-06-14 18:46:00,
2013-06-14 14:51:00,69.0,56.7,29.71,ESE,112,1.9,4.6,65,0.00,SCT,,0.67,WeatherDisplay:10.37,2013-06-14 18:51:00,
2013-06-14 14:56:00,68.7,56.0,29.71,ESE,111,2.0,3.5,64,0.00,SCT,,0.67,WeatherDisplay:10.37,2013-06-14 18:56:00,
2013-06-14 15:01:00,68.5,58.3,29.71,NNW,329,1.2,3.5,70,0.00,FEW,,0.67,WeatherDisplay:10.37,2013-06-14 19:01:00,
2013-06-14 15:06:00,68.4,57.0,29.71,WSW,242,0.8,3.5,67,0.00,FEW,,0.67,WeatherDisplay:10.37,2013-06-14 19:06:00,
2013-06-14 15:11:00,68.7,56.5,29.71,WSW,243,0.7,3.5,65,0.00,FEW,,0.67,WeatherDisplay:10.37,2013-06-14 19:11:00,
2013-06-14 15:16:00,69.3,57.5,29.71,NE,54,1.0,2.3,66,0.00,FEW,,0.67,WeatherDisplay:10.37,2013-06-14 19:16:00,
2013-06-14 15:21:00,69.8,56.2,29.71,NNW,337,2.5,5.8,62,0.00,FEW,,0.67,WeatherDisplay:10.37,2013-06-14 19:21:00,
2013-06-14 15:26:00,70.3,56.7,29.71,NE,55,1.4,3.5,62,0.00,FEW,,0.67,WeatherDisplay:10.37,2013-06-14 19:26:00,
2013-06-14 15:31:00,70.6,56.5,29.71,NW,315,1.6,2.3,61,0.00,FEW,,0.67,WeatherDisplay:10.37,2013-06-14 19:31:00,
2013-06-14 15:36:00,70.6,56.0,29.71,NNW,329,1.7,3.5,60,0.00,FEW,,0.67,WeatherDisplay:10.37,2013-06-14 19:36:00,
2013-06-14 15:41:00,71.0,56.9,29.71,WNW,289,0.7,1.2,61,0.00,FEW,,0.67,WeatherDisplay:10.37,2013-06-14 19:41:00,
2013-06-14 15:46:00,71.3,57.6,29.70,NW,308,1.4,4.0,62,0.00,FEW,,0.67,WeatherDisplay:10.37,2013-06-14 19:46:00,
2013-06-14 15:51:00,71.3,54.8,29.70,NW,326,3.0,4.6,56,0.00,FEW,,0.67,WeatherDisplay:10.37,2013-06-14 19:51:00,
2013-06-14 15:56:00,71.3,56.2,29.70,NE,40,0.0,1.2,59,0.00,FEW,,0.67,WeatherDisplay:10.37,2013-06-14 19:56:00,
2013-06-14 16:01:00,71.7,58.4,29.70,West,267,2.0,3.5,63,0.00,FEW,,0.67,WeatherDisplay:10.37,2013-06-14 20:01:00,
2013-06-14 16:06:00,72.2,59.3,29.69,West,272,1.0,4.0,64,0.00,FEW,,0.67,WeatherDisplay:10.37,2013-06-14 20:06:00,
2013-06-14 16:11:00,72.3,57.6,29.69,NNW,333,3.6,5.0,60,0.00,FEW,,0.67,WeatherDisplay:10.37,2013-06-14 20:11:00,
2013-06-14 16:16:00,72.5,56.4,29.69,SSW,204,2.6,4.6,57,0.00,FEW,,0.67,WeatherDisplay:10.37,2013-06-14 20:16:00,
2013-06-14 16:21:00,72.9,56.8,29.69,West,259,2.8,6.0,57,0.00,FEW,,0.67,WeatherDisplay:10.37,2013-06-14 20:21:00,
2013-06-14 16:26:00,72.7,55.1,29.69,NW,324,2.9,4.6,54,0.00,FEW,,0.67,WeatherDisplay:10.37,2013-06-14 20:26:00,
2013-06-14 16:31:00,73.0,55.9,29.69,SE,139,1.3,2.3,55,0.00,FEW,,0.67,WeatherDisplay:10.37,2013-06-14 20:31:00,
2013-06-14 16:36:00,73.2,57.5,29.69,NNE,16,0.2,1.2,58,0.00,FEW,,0.67,WeatherDisplay:10.37,2013-06-14 20:36:00,
2013-06-14 16:41:00,73.3,56.7,29.69,WNW,296,1.4,2.3,56,0.00,FEW,,0.67,WeatherDisplay:10.37,2013-06-14 20:41:00,
2013-06-14 16:46:00,73.5,58.3,29.69,NNE,30,1.2,2.3,59,0.00,FEW,,0.67,WeatherDisplay:10.37,2013-06-14 20:46:00,
2013-06-14 16:51:00,73.6,56.4,29.69,West,260,1.3,2.0,55,0.00,FEW,,0.67,WeatherDisplay:10.37,2013-06-14 20:51:00,
2013-06-14 16:56:00,73.7,55.0,29.69,NW,317,2.6,4.6,52,0.00,FEW,,0.67,WeatherDisplay:10.37,2013-06-14 20:56:00,
2013-06-14 17:01:00,73.7,54.4,29.69,NNE,22,1.2,4.6,51,0.00,FEW,,0.67,WeatherDisplay:10.37,2013-06-14 21:01:00,
2013-06-14 17:06:00,73.9,53.5,29.69,North,360,1.4,4.6,49,0.00,FEW,,0.67,WeatherDisplay:10.37,2013-06-14 21:06:00,
2013-06-14 17:11:00,74.1,55.3,29.69,North,355,1.6,3.5,52,0.00,FEW,,0.67,WeatherDisplay:10.37,2013-06-14 21:11:00,
2013-06-14 17:16:00,74.1,54.8,29.69,WNW,296,0.8,3.0,51,0.00,CLR,,0.67,WeatherDisplay:10.37,2013-06-14 21:16:00,
2013-06-14 17:21:00,74.2,54.4,29.69,NW,309,0.3,1.2,50,0.00,CLR,,0.67,WeatherDisplay:10.37,2013-06-14 21:21:00,
2013-06-14 17:26:00,74.2,57.0,29.69,NW,308,0.5,2.3,55,0.00,CLR,,0.67,WeatherDisplay:10.37,2013-06-14 21:26:00,
2013-06-14 17:31:00,73.7,58.0,29.69,NNE,17,0.3,1.2,58,0.00,CLR,,0.67,WeatherDisplay:10.37,2013-06-14 21:31:00,
2013-06-14 17:36:00,73.0,57.3,29.69,NNW,336,1.9,2.3,58,0.00,CLR,,0.67,WeatherDisplay:10.37,2013-06-14 21:36:00,
2013-06-14 17:41:00,72.6,57.0,29.69,WNW,285,0.7,2.3,58,0.00,CLR,,0.67,WeatherDisplay:10.37,2013-06-14 21:41:00,
2013-06-14 17:46:00,72.2,57.1,29.69,WSW,252,0.8,1.2,59,0.00,CLR,,0.67,WeatherDisplay:10.37,2013-06-14 21:46:00,
2013-06-14 17:51:00,72.0,56.4,29.69,WNW,302,0.3,3.5,58,0.00,CLR,,0.67,WeatherDisplay:10.37,2013-06-14 21:51:00,
2013-06-14 17:56:00,72.1,57.0,29.69,WNW,298,0.2,1.2,59,0.00,CLR,,0.67,WeatherDisplay:10.37,2013-06-14 21:56:00,
2013-06-14 18:01:00,72.2,57.5,29.69,WNW,298,0.0,0.0,60,0.00,CLR,,0.67,WeatherDisplay:10.37,2013-06-14 22:01:00,
2013-06-14 18:06:00,72.7,56.1,29.70,WNW,298,0.2,1.0,56,0.00,CLR,,0.67,WeatherDisplay:10.37,2013-06-14 22:06:00,
2013-06-14 18:11:00,72.9,54.8,29.70,West,273,2.1,2.3,53,0.00,CLR,,0.67,WeatherDisplay:10.37,2013-06-14 22:11:00,
2013-06-14 18:16:00,73.1,55.5,29.70,NNE,24,1.8,3.5,54,0.00,OVC,,0.67,WeatherDisplay:10.37,2013-06-14 22:16:00,
2013-06-14 18:21:00,73.2,53.4,29.70,West,265,0.3,2.3,50,0.00,OVC,,0.67,WeatherDisplay:10.37,2013-06-14 22:21:00,
2013-06-14 18:26:00,73.4,52.5,29.70,NE,34,3.7,5.8,48,0.00,OVC,,0.67,WeatherDisplay:10.37,2013-06-14 22:26:00,
2013-06-14 18:31:00,73.6,55.4,29.70,NW,306,0.9,2.3,53,0.00,OVC,,0.67,WeatherDisplay:10.37,2013-06-14 22:31:00,
2013-06-14 18:36:00,73.3,55.1,29.70,NW,311,0.3,2.3,53,0.00,OVC,,0.67,WeatherDisplay:10.37,2013-06-14 22:36:00,
2013-06-14 18:41:00,72.7,55.6,29.70,NW,315,0.2,1.0,55,0.00,OVC,,0.67,WeatherDisplay:10.37,2013-06-14 22:41:00,
2013-06-14 18:46:00,72.1,54.5,29.70,NW,320,0.9,2.3,54,0.00,OVC,,0.67,WeatherDisplay:10.37,2013-06-14 22:46:00,
2013-06-14 18:51:00,71.5,54.5,29.70,NW,316,0.5,3.5,55,0.00,OVC,,0.67,WeatherDisplay:10.37,2013-06-14 22:51:00,
2013-06-14 18:56:00,71.1,57.4,29.71,NW,315,0.0,0.0,62,0.00,OVC,,0.67,WeatherDisplay:10.37,2013-06-14 22:56:00,
2013-06-14 19:01:00,70.5,56.9,29.71,NW,315,0.0,0.0,62,0.00,OVC,,0.67,WeatherDisplay:10.37,2013-06-14 23:01:00,
2013-06-14 19:06:00,69.9,58.4,29.71,NW,315,0.0,0.0,67,0.00,OVC,,0.67,WeatherDisplay:10.37,2013-06-14 23:06:00,
2013-06-14 19:11:00,69.5,60.1,29.71,NW,315,0.0,0.0,72,0.00,OVC,,0.67,WeatherDisplay:10.37,2013-06-14 23:11:00,
2013-06-14 19:16:00,69.0,60.7,29.71,NW,315,0.0,0.0,75,0.00,CLR,,0.67,WeatherDisplay:10.37,2013-06-14 23:16:00,
2013-06-14 19:21:00,68.4,60.5,29.71,NW,315,0.0,0.0,76,0.00,CLR,,0.67,WeatherDisplay:10.37,2013-06-14 23:21:00,
2013-06-14 19:26:00,67.8,60.3,29.71,NW,315,0.0,0.0,77,0.00,CLR,,0.67,WeatherDisplay:10.37,2013-06-14 23:26:00,
2013-06-14 19:31:00,67.3,60.2,29.71,NW,315,0.0,1.0,78,0.00,CLR,,0.67,WeatherDisplay:10.37,2013-06-14 23:31:00,
2013-06-14 19:36:00,66.9,60.2,29.71,NW,315,0.1,0.0,79,0.00,CLR,,0.67,WeatherDisplay:10.37,2013-06-14 23:36:00,
2013-06-14 19:41:00,66.4,60.0,29.71,NW,315,0.0,0.0,80,0.00,CLR,,0.67,WeatherDisplay:10.37,2013-06-14 23:41:00,
2013-06-14 19:46:00,65.8,59.5,29.71,NW,315,0.0,0.0,80,0.00,CLR,,0.67,WeatherDisplay:10.37,2013-06-14 23:46:00,
2013-06-14 19:51:00,65.4,59.4,29.71,NW,315,0.1,1.2,81,0.00,CLR,,0.67,WeatherDisplay:10.37,2013-06-14 23:51:00,
2013-06-14 19:56:00,64.9,59.3,29.71,NW,315,0.0,0.0,82,0.00,CLR,,0.67,WeatherDisplay:10.37,2013-06-14 23:56:00,
2013-06-14 20:01:00,64.5,58.9,29.71,NW,315,0.0,0.0,82,0.00,CLR,,0.67,WeatherDisplay:10.37,2013-06-15 00:01:00,
2013-06-14 20:06:00,64.3,59.4,29.71,NW,315,0.0,0.0,84,0.00,CLR,,0.67,WeatherDisplay:10.37,2013-06-15 00:06:00,
2013-06-14 20:11:00,64.0,59.1,29.71,NW,315,0.0,0.0,84,0.00,CLR,,0.67,WeatherDisplay:10.37,2013-06-15 00:11:00,
2013-06-14 20:16:00,63.7,59.1,29.71,NW,315,0.0,0.0,85,0.00,CLR,,0.67,WeatherDisplay:10.37,2013-06-15 00:16:00,
2013-06-14 20:21:00,63.4,59.1,29.71,NW,315,0.0,0.0,86,0.00,CLR,,0.67,WeatherDisplay:10.37,2013-06-15 00:21:00,
2013-06-14 20:26:00,63.2,58.9,29.72,NW,315,0.0,0.0,86,0.00,CLR,,0.67,WeatherDisplay:10.37,2013-06-15 00:26:00,
2013-06-14 20:31:00,62.9,59.0,29.72,NW,315,0.0,0.0,87,0.00,CLR,,0.67,WeatherDisplay:10.37,2013-06-15 00:31:00,
2013-06-14 20:36:00,62.7,58.5,29.72,NW,315,0.0,0.0,86,0.00,CLR,,0.67,WeatherDisplay:10.37,2013-06-15 00:36:00,
2013-06-14 20:41:00,62.5,58.3,29.72,NW,315,0.0,0.0,86,0.00,CLR,,0.67,WeatherDisplay:10.37,2013-06-15 00:41:00,
2013-06-14 20:46:00,62.2,58.0,29.72,NW,315,0.0,0.0,86,0.00,CLR,,0.67,WeatherDisplay:10.37,2013-06-15 00:46:00,
2013-06-14 20:51:00,61.8,57.6,29.72,NW,315,0.0,0.0,86,0.00,CLR,,0.67,WeatherDisplay:10.37,2013-06-15 00:51:00,
2013-06-14 20:56:00,61.5,57.6,29.73,NW,315,0.0,0.0,87,0.00,CLR,,0.67,WeatherDisplay:10.37,2013-06-15 00:56:00,
2013-06-14 21:01:00,61.2,57.6,29.73,NW,315,0.0,1.2,88,0.00,CLR,,0.67,WeatherDisplay:10.37,2013-06-15 01:01:00,
2013-06-14 21:06:00,60.9,57.6,29.73,NW,315,0.0,0.0,89,0.00,CLR,,0.67,WeatherDisplay:10.37,2013-06-15 01:06:00,
2013-06-14 21:11:00,60.7,57.4,29.73,NW,315,0.3,1.2,89,0.00,CLR,,0.67,WeatherDisplay:10.37,2013-06-15 01:11:00,
2013-06-14 21:16:00,60.4,57.1,29.73,NW,315,0.0,0.0,89,0.00,FEW,,0.67,WeatherDisplay:10.37,2013-06-15 01:16:00,
2013-06-14 21:21:00,60.2,56.9,29.73,NW,315,0.0,0.0,89,0.00,FEW,,0.67,WeatherDisplay:10.37,2013-06-15 01:21:00,
2013-06-14 21:26:00,60.0,56.7,29.74,NW,315,0.0,0.0,89,0.00,FEW,,0.67,WeatherDisplay:10.37,2013-06-15 01:26:00,
2013-06-14 21:31:00,59.8,56.6,29.74,NW,315,0.0,0.0,89,0.00,FEW,,0.67,WeatherDisplay:10.37,2013-06-15 01:31:00,
2013-06-14 21:36:00,59.7,56.8,29.74,NW,315,0.0,0.0,90,0.00,FEW,,0.67,WeatherDisplay:10.37,2013-06-15 01:36:00,
2013-06-14 21:41:00,59.6,56.7,29.74,NW,315,0.0,0.0,90,0.00,FEW,,0.67,WeatherDisplay:10.37,2013-06-15 01:41:00,
2013-06-14 21:46:00,59.6,57.0,29.74,NW,315,0.0,1.0,91,0.00,FEW,,0.67,WeatherDisplay:10.37,2013-06-15 01:46:00,
2013-06-14 21:51:00,59.6,56.7,29.74,NW,315,0.0,0.0,90,0.00,FEW,,0.67,WeatherDisplay:10.37,2013-06-15 01:51:00,
2013-06-14 21:56:00,59.6,56.4,29.74,NW,307,0.0,1.2,89,0.00,FEW,,0.67,WeatherDisplay:10.37,2013-06-15 01:56:00,
2013-06-14 22:01:00,59.7,56.8,29.74,NW,307,0.0,0.0,90,0.00,FEW,,0.67,WeatherDisplay:10.37,2013-06-15 02:01:00,
2013-06-14 22:06:00,59.6,56.7,29.74,NW,307,0.1,0.0,90,0.00,FEW,,0.67,WeatherDisplay:10.37,2013-06-15 02:06:00,
2013-06-14 22:11:00,59.6,56.7,29.74,NW,307,0.0,0.0,90,0.00,FEW,,0.67,WeatherDisplay:10.37,2013-06-15 02:11:00,
2013-06-14 22:16:00,59.4,56.5,29.74,NW,307,0.0,0.0,90,0.00,BKN,,0.67,WeatherDisplay:10.37,2013-06-15 02:16:00,
2013-06-14 22:21:00,59.4,56.8,29.74,NW,307,0.0,1.2,91,0.00,BKN,,0.67,WeatherDisplay:10.37,2013-06-15 02:21:00,
2013-06-14 22:27:00,59.3,56.4,29.74,NW,307,0.0,0.0,90,0.00,BKN,,0.67,WeatherDisplay:10.37,2013-06-15 02:27:00,
2013-06-14 22:32:00,59.3,56.4,29.74,NW,307,0.1,0.0,90,0.00,BKN,,0.67,WeatherDisplay:10.37,2013-06-15 02:32:00,
2013-06-14 22:37:00,59.3,56.4,29.74,NW,307,0.1,1.2,90,0.00,BKN,,0.67,WeatherDisplay:10.37,2013-06-15 02:37:00,
2013-06-14 22:42:00,59.3,56.1,29.74,NW,307,0.1,1.2,89,0.00,BKN,,0.67,WeatherDisplay:10.37,2013-06-15 02:42:00,
2013-06-14 22:47:00,59.5,55.6,29.74,West,271,1.5,3.5,87,0.00,BKN,,0.67,WeatherDisplay:10.37,2013-06-15 02:47:00,
2013-06-14 22:52:00,60.0,55.8,29.75,West,265,0.3,1.2,86,0.00,BKN,,0.67,WeatherDisplay:10.37,2013-06-15 02:52:00,
2013-06-14 22:57:00,60.4,55.5,29.75,NW,311,1.5,4.6,84,0.00,BKN,,0.67,WeatherDisplay:10.37,2013-06-15 02:57:00,
2013-06-14 23:02:00,60.8,55.9,29.75,West,277,0.0,1.2,84,0.00,CLR,,0.67,WeatherDisplay:10.37,2013-06-15 03:02:00,
2013-06-14 23:07:00,60.9,55.7,29.75,West,277,0.2,3.5,83,0.00,CLR,,0.67,WeatherDisplay:10.37,2013-06-15 03:07:00,
2013-06-14 23:12:00,60.8,55.6,29.75,West,268,1.3,2.3,83,0.00,CLR,,0.67,WeatherDisplay:10.37,2013-06-15 03:12:00,
2013-06-14 23:17:00,60.5,55.6,29.75,West,273,0.4,1.2,84,0.00,CLR,,0.67,WeatherDisplay:10.37,2013-06-15 03:17:00,
2013-06-14 23:22:00,60.3,56.1,29.76,West,273,0.0,0.0,86,0.00,CLR,,0.67,WeatherDisplay:10.37,2013-06-15 03:22:00,
2013-06-14 23:27:00,59.9,55.7,29.75,West,273,0.0,0.0,86,0.00,CLR,,0.67,WeatherDisplay:10.37,2013-06-15 03:27:00,
2013-06-14 23:32:00,59.7,55.5,29.76,West,273,0.1,2.3,86,0.00,CLR,,0.67,WeatherDisplay:10.37,2013-06-15 03:32:00,
2013-06-14 23:37:00,59.5,55.3,29.76,West,273,0.2,1.2,86,0.00,CLR,,0.67,WeatherDisplay:10.37,2013-06-15 03:37:00,
2013-06-14 23:42:00,59.3,54.8,29.76,WNW,286,1.5,1.5,85,0.00,CLR,,0.67,WeatherDisplay:10.37,2013-06-15 03:42:00,
2013-06-14 23:47:00,59.3,54.8,29.76,WNW,286,0.4,2.3,85,0.00,CLR,,0.67,WeatherDisplay:10.37,2013-06-15 03:47:00,
2013-06-14 23:52:00,59.1,54.9,29.76,WNW,286,0.0,1.2,86,0.00,CLR,,0.67,WeatherDisplay:10.37,2013-06-15 03:52:00,
2013-06-14 23:57:00,59.1,54.9,29.77,WNW,296,0.0,1.2,86,0.00,CLR,,0.67,WeatherDisplay:10.37,2013-06-15 03:57:00,